sensor_id;sensor_type;location;lat;lon;timestamp;pressure;altitude;pressure_sealevel;temperature;humidity
77079;BME280;66004;55.096;38.760;2023-02-01T00:01:37;99064.66;;;-0.03;69.22
77079;BME280;66004;55.096;38.760;2023-02-01T00:04:02;99062.50;;;-0.06;69.52
77079;BME280;66004;55.096;38.760;2023-02-01T00:06:28;99050.97;;;-0.13;69.79
77079;BME280;66004;55.096;38.760;2023-02-01T00:08:54;99054.50;;;-0.07;69.64
77079;BME280;66004;55.096;38.760;2023-02-01T00:11:20;99061.66;;;-0.06;69.67
77079;BME280;66004;55.096;38.760;2023-02-01T00:13:46;99064.13;;;-0.05;69.81
77079;BME280;66004;55.096;38.760;2023-02-01T00:16:16;99059.72;;;-0.06;69.63
77079;BME280;66004;55.096;38.760;2023-02-01T00:18:45;99054.81;;;-0.14;69.60
77079;BME280;66004;55.096;38.760;2023-02-01T00:21:16;99069.66;;;-0.05;69.79
77079;BME280;66004;55.096;38.760;2023-02-01T00:23:42;99066.66;;;-0.08;69.76
77079;BME280;66004;55.096;38.760;2023-02-01T00:26:15;99060.84;;;-0.07;70.20
77079;BME280;66004;55.096;38.760;2023-02-01T00:28:41;99048.72;;;-0.11;70.25
77079;BME280;66004;55.096;38.760;2023-02-01T00:31:07;99060.53;;;-0.05;70.14
77079;BME280;66004;55.096;38.760;2023-02-01T00:33:33;99056.97;;;-0.06;70.05
77079;BME280;66004;55.096;38.760;2023-02-01T00:36:00;99058.59;;;-0.05;69.96
77079;BME280;66004;55.096;38.760;2023-02-01T00:38:27;99065.78;;;-0.04;69.96
77079;BME280;66004;55.096;38.760;2023-02-01T00:40:54;99064.69;;;-0.08;70.19
77079;BME280;66004;55.096;38.760;2023-02-01T00:43:20;99061.34;;;-0.05;70.11
77079;BME280;66004;55.096;38.760;2023-02-01T00:45:46;99063.53;;;-0.02;70.07
77079;BME280;66004;55.096;38.760;2023-02-01T00:48:12;99074.00;;;0.02;70.07
77079;BME280;66004;55.096;38.760;2023-02-01T00:50:44;99059.66;;;-0.01;69.95
77079;BME280;66004;55.096;38.760;2023-02-01T00:53:10;99066.22;;;0.04;69.92
77079;BME280;66004;55.096;38.760;2023-02-01T00:55:36;99071.75;;;0.04;69.69
77079;BME280;66004;55.096;38.760;2023-02-01T00:58:01;99072.38;;;0.01;69.72
77079;BME280;66004;55.096;38.760;2023-02-01T01:00:27;99062.19;;;-0.04;69.72
77079;BME280;66004;55.096;38.760;2023-02-01T01:02:53;99064.13;;;-0.05;69.95
77079;BME280;66004;55.096;38.760;2023-02-01T01:05:18;99064.41;;;-0.06;69.82
77079;BME280;66004;55.096;38.760;2023-02-01T01:07:44;99064.69;;;-0.08;69.92
77079;BME280;66004;55.096;38.760;2023-02-01T01:10:10;99071.88;;;-0.07;70.15
77079;BME280;66004;55.096;38.760;2023-02-01T01:12:35;99052.34;;;-0.15;70.03
77079;BME280;66004;55.096;38.760;2023-02-01T01:15:01;99071.31;;;-0.04;70.01
77079;BME280;66004;55.096;38.760;2023-02-01T01:17:26;99074.59;;;-0.02;69.91
77079;BME280;66004;55.096;38.760;2023-02-01T01:19:52;99066.31;;;-0.02;69.85
77079;BME280;66004;55.096;38.760;2023-02-01T01:22:17;99076.25;;;-0.01;69.99
77079;BME280;66004;55.096;38.760;2023-02-01T01:24:43;99072.38;;;0.01;69.69
77079;BME280;66004;55.096;38.760;2023-02-01T01:27:08;99071.75;;;0.04;69.49
77079;BME280;66004;55.096;38.760;2023-02-01T01:29:34;99084.19;;;0.06;69.66
77079;BME280;66004;55.096;38.760;2023-02-01T01:32:00;99075.66;;;0.03;69.81
77079;BME280;66004;55.096;38.760;2023-02-01T01:34:25;99090.00;;;0.05;69.64
77079;BME280;66004;55.096;38.760;2023-02-01T01:36:51;99087.78;;;0.07;69.84
77079;BME280;66004;55.096;38.760;2023-02-01T01:39:16;99074.31;;;0.00;69.48
77079;BME280;66004;55.096;38.760;2023-02-01T01:41:42;99088.34;;;0.04;69.83
77079;BME280;66004;55.096;38.760;2023-02-01T01:47:11;99087.91;;;-0.04;69.74
77079;BME280;66004;55.096;38.760;2023-02-01T01:49:37;99084.63;;;-0.06;69.74
77079;BME280;66004;55.096;38.760;2023-02-01T01:52:03;99090.16;;;-0.06;69.73
77079;BME280;66004;55.096;38.760;2023-02-01T01:54:33;99072.53;;;-0.15;70.12
77079;BME280;66004;55.096;38.760;2023-02-01T01:57:14;99066.41;;;-0.12;70.01
77079;BME280;66004;55.096;38.760;2023-02-01T01:59:43;99080.13;;;-0.02;69.82
77079;BME280;66004;55.096;38.760;2023-02-01T02:02:11;99078.47;;;-0.03;69.92
77079;BME280;66004;55.096;38.760;2023-02-01T02:04:37;99072.41;;;-0.05;69.97
77079;BME280;66004;55.096;38.760;2023-02-01T02:07:10;99072.94;;;-0.03;69.98
77079;BME280;66004;55.096;38.760;2023-02-01T02:09:37;99070.22;;;-0.08;70.02
77079;BME280;66004;55.096;38.760;2023-02-01T02:12:03;99073.56;;;-0.06;69.71
77079;BME280;66004;55.096;38.760;2023-02-01T02:14:29;99066.13;;;-0.10;69.72
77079;BME280;66004;55.096;38.760;2023-02-01T02:31:04;99079.13;;;-0.11;69.92
77079;BME280;66004;55.096;38.760;2023-02-01T02:36:32;99088.53;;;-0.12;69.81
77079;BME280;66004;55.096;38.760;2023-02-01T02:39:12;99097.34;;;-0.10;69.99
77079;BME280;66004;55.096;38.760;2023-02-01T02:45:01;99089.38;;;-0.11;69.95
77079;BME280;66004;55.096;38.760;2023-02-01T02:47:57;99082.94;;;-0.07;69.72
77079;BME280;66004;55.096;38.760;2023-02-01T02:53:40;99080.84;;;-0.15;69.46
77079;BME280;66004;55.096;38.760;2023-02-01T02:56:28;99091.66;;;-0.18;69.25
77079;BME280;66004;55.096;38.760;2023-02-01T02:59:16;99091.41;;;-0.22;69.81
77079;BME280;66004;55.096;38.760;2023-02-01T03:02:04;99086.47;;;-0.25;69.92
77079;BME280;66004;55.096;38.760;2023-02-01T03:04:52;99091.97;;;-0.25;69.90
77079;BME280;66004;55.096;38.760;2023-02-01T03:13:09;99080.75;;;-0.34;70.00
77079;BME280;66004;55.096;38.760;2023-02-01T03:16:07;99095.00;;;-0.22;70.11
77079;BME280;66004;55.096;38.760;2023-02-01T03:21:29;99088.13;;;-0.24;69.88
77079;BME280;66004;55.096;38.760;2023-02-01T03:24:00;99099.19;;;-0.24;69.99
77079;BME280;66004;55.096;38.760;2023-02-01T03:26:29;99095.28;;;-0.23;70.00
77079;BME280;66004;55.096;38.760;2023-02-01T03:29:02;99101.28;;;-0.16;69.87
77079;BME280;66004;55.096;38.760;2023-02-01T03:31:30;99102.97;;;-0.15;69.80
77079;BME280;66004;55.096;38.760;2023-02-01T03:33:57;99107.88;;;-0.12;69.85
77079;BME280;66004;55.096;38.760;2023-02-01T03:36:40;99105.41;;;-0.13;69.87
77079;BME280;66004;55.096;38.760;2023-02-01T03:41:44;99116.69;;;-0.10;69.73
77079;BME280;66004;55.096;38.760;2023-02-01T03:44:29;99115.06;;;-0.11;69.75
77079;BME280;66004;55.096;38.760;2023-02-01T03:47:10;99122.22;;;-0.10;69.85
77079;BME280;66004;55.096;38.760;2023-02-01T03:49:41;99116.69;;;-0.10;69.72
77079;BME280;66004;55.096;38.760;2023-02-01T03:52:16;99120.00;;;-0.08;69.45
77079;BME280;66004;55.096;38.760;2023-02-01T03:54:44;99122.72;;;-0.03;69.79
77079;BME280;66004;55.096;38.760;2023-02-01T03:57:14;99124.91;;;0.01;69.42
77079;BME280;66004;55.096;38.760;2023-02-01T03:59:41;99128.50;;;0.01;69.62
77079;BME280;66004;55.096;38.760;2023-02-01T04:02:07;99118.25;;;0.02;69.59
77079;BME280;66004;55.096;38.760;2023-02-01T04:04:34;99120.47;;;-0.01;69.65
77079;BME280;66004;55.096;38.760;2023-02-01T04:07:00;99126.53;;;0.02;69.39
77079;BME280;66004;55.096;38.760;2023-02-01T04:09:26;99129.84;;;0.04;69.44
77079;BME280;66004;55.096;38.760;2023-02-01T04:11:51;99135.38;;;0.04;69.50
77079;BME280;66004;55.096;38.760;2023-02-01T04:14:17;99134.31;;;-0.01;69.40
77079;BME280;66004;55.096;38.760;2023-02-01T04:16:42;99135.44;;;-0.02;69.50
77079;BME280;66004;55.096;38.760;2023-02-01T04:19:08;99135.44;;;-0.02;69.40
77079;BME280;66004;55.096;38.760;2023-02-01T04:21:34;99142.03;;;0.03;69.57
77079;BME280;66004;55.096;38.760;2023-02-01T04:23:59;99138.13;;;0.04;69.38
77079;BME280;66004;55.096;38.760;2023-02-01T04:26:25;99095.28;;;-0.23;69.45
77079;BME280;66004;55.096;38.760;2023-02-01T04:28:50;99146.38;;;0.09;69.55
77079;BME280;66004;55.096;38.760;2023-02-01T04:31:18;99157.44;;;0.09;69.16
77079;BME280;66004;55.096;38.760;2023-02-01T04:33:51;99149.72;;;0.06;69.36
77079;BME280;66004;55.096;38.760;2023-02-01T04:36:19;99153.56;;;0.10;69.36
77079;BME280;66004;55.096;38.760;2023-02-01T04:38:51;99152.50;;;0.06;69.23
77079;BME280;66004;55.096;38.760;2023-02-01T04:41:17;99157.97;;;0.11;69.35
77079;BME280;66004;55.096;38.760;2023-02-01T04:43:46;99158.03;;;0.06;69.53
77079;BME280;66004;55.096;38.760;2023-02-01T04:46:12;99158.03;;;0.06;69.38
77079;BME280;66004;55.096;38.760;2023-02-01T04:48:37;99156.97;;;0.02;69.37
77079;BME280;66004;55.096;38.760;2023-02-01T04:51:04;99160.78;;;0.06;69.46
77079;BME280;66004;55.096;38.760;2023-02-01T04:53:29;99150.72;;;-0.09;69.28
77079;BME280;66004;55.096;38.760;2023-02-01T04:55:55;99169.97;;;0.01;69.37
77079;BME280;66004;55.096;38.760;2023-02-01T04:58:20;99170.22;;;0.05;69.35
77079;BME280;66004;55.096;38.760;2023-02-01T05:00:46;99173.56;;;0.02;69.77
77079;BME280;66004;55.096;38.760;2023-02-01T05:03:12;99172.22;;;-0.01;69.74
77079;BME280;66004;55.096;38.760;2023-02-01T05:05:38;99156.00;;;-0.13;69.53
77079;BME280;66004;55.096;38.760;2023-02-01T05:08:03;99164.84;;;-0.11;69.64
77079;BME280;66004;55.096;38.760;2023-02-01T05:10:29;99174.19;;;-0.07;69.62
77079;BME280;66004;55.096;38.760;2023-02-01T05:12:57;99185.53;;;-0.08;69.70
77079;BME280;66004;55.096;38.760;2023-02-01T05:15:41;99173.13;;;-0.11;69.71
77079;BME280;66004;55.096;38.760;2023-02-01T05:18:07;99182.50;;;-0.07;69.80
77079;BME280;66004;55.096;38.760;2023-02-01T05:20:32;99180.81;;;-0.08;69.67
77079;BME280;66004;55.096;38.760;2023-02-01T05:22:58;99183.31;;;-0.06;69.86
77079;BME280;66004;55.096;38.760;2023-02-01T05:25:23;99173.69;;;-0.14;69.74
77079;BME280;66004;55.096;38.760;2023-02-01T05:27:49;99173.09;;;-0.06;69.70
77079;BME280;66004;55.096;38.760;2023-02-01T05:30:15;99171.44;;;-0.07;69.65
77079;BME280;66004;55.096;38.760;2023-02-01T05:32:40;99180.25;;;-0.05;69.62
77079;BME280;66004;55.096;38.760;2023-02-01T05:35:06;99186.97;;;-0.11;69.53
77079;BME280;66004;55.096;38.760;2023-02-01T05:37:32;99189.78;;;-0.21;69.87
77079;BME280;66004;55.096;38.760;2023-02-01T05:39:57;99185.41;;;-0.22;69.78
77079;BME280;66004;55.096;38.760;2023-02-01T05:42:23;99176.31;;;-0.28;69.85
77079;BME280;66004;55.096;38.760;2023-02-01T05:44:48;99188.94;;;-0.16;69.71
77079;BME280;66004;55.096;38.760;2023-02-01T05:47:14;99189.19;;;-0.13;69.95
77079;BME280;66004;55.096;38.760;2023-02-01T05:49:39;99182.53;;;-0.12;69.83
77079;BME280;66004;55.096;38.760;2023-02-01T05:52:05;99183.66;;;-0.13;69.73
77079;BME280;66004;55.096;38.760;2023-02-01T05:54:31;99190.00;;;-0.12;69.59
77079;BME280;66004;55.096;38.760;2023-02-01T05:56:56;99178.69;;;-0.16;69.61
77079;BME280;66004;55.096;38.760;2023-02-01T05:59:22;99161.63;;;-0.23;69.69
77079;BME280;66004;55.096;38.760;2023-02-01T06:01:47;99187.19;;;-0.07;69.72
77079;BME280;66004;55.096;38.760;2023-02-01T06:04:13;99198.50;;;-0.04;69.64
77079;BME280;66004;55.096;38.760;2023-02-01T06:06:39;99181.91;;;-0.04;69.67
77079;BME280;66004;55.096;38.760;2023-02-01T06:09:05;99191.81;;;0.03;69.58
77079;BME280;66004;55.096;38.760;2023-02-01T06:11:30;99191.81;;;0.03;69.61
77079;BME280;66004;55.096;38.760;2023-02-01T06:13:56;99190.13;;;0.02;69.13
77079;BME280;66004;55.096;38.760;2023-02-01T06:16:22;99194.53;;;0.08;69.36
77079;BME280;66004;55.096;38.760;2023-02-01T06:18:48;99193.63;;;0.12;69.49
77079;BME280;66004;55.096;38.760;2023-02-01T06:21:14;99188.09;;;0.12;69.53
77079;BME280;66004;55.096;38.760;2023-02-01T06:23:51;99183.91;;;0.15;69.34
77079;BME280;66004;55.096;38.760;2023-02-01T06:26:17;99200.44;;;0.25;69.22
77079;BME280;66004;55.096;38.760;2023-02-01T06:28:43;99204.31;;;0.24;68.99
77079;BME280;66004;55.096;38.760;2023-02-01T06:31:09;99196.00;;;0.24;68.98
77079;BME280;66004;55.096;38.760;2023-02-01T06:33:35;99201.00;;;0.22;69.42
77079;BME280;66004;55.096;38.760;2023-02-01T06:36:03;99204.31;;;0.24;68.95
77079;BME280;66004;55.096;38.760;2023-02-01T06:38:29;99207.16;;;0.19;69.00
77079;BME280;66004;55.096;38.760;2023-02-01T06:40:57;99214.31;;;0.20;69.08
77079;BME280;66004;55.096;38.760;2023-02-01T06:43:24;99201.13;;;0.12;69.06
77079;BME280;66004;55.096;38.760;2023-02-01T06:45:50;99217.13;;;0.15;68.99
77079;BME280;66004;55.096;38.760;2023-02-01T06:48:16;99215.19;;;0.15;69.02
77079;BME280;66004;55.096;38.760;2023-02-01T06:50:42;99221.25;;;0.17;69.06
77079;BME280;66004;55.096;38.760;2023-02-01T06:53:08;99228.19;;;0.15;68.89
77079;BME280;66004;55.096;38.760;2023-02-01T06:55:33;99226.00;;;0.12;68.68
77079;BME280;66004;55.096;38.760;2023-02-01T06:57:59;99227.47;;;0.04;69.15
77079;BME280;66004;55.096;38.760;2023-02-01T07:00:26;99226.63;;;0.04;69.10
77079;BME280;66004;55.096;38.760;2023-02-01T07:02:51;99219.47;;;0.03;69.06
77079;BME280;66004;55.096;38.760;2023-02-01T07:05:17;99237.59;;;0.14;69.04
77079;BME280;66004;55.096;38.760;2023-02-01T07:07:43;99234.81;;;0.19;68.88
77079;BME280;66004;55.096;38.760;2023-02-01T07:10:09;99237.50;;;0.24;68.69
77079;BME280;66004;55.096;38.760;2023-02-01T07:12:35;99245.75;;;0.29;68.84
77079;BME280;66004;55.096;38.760;2023-02-01T07:15:01;99220.91;;;0.24;68.77
77079;BME280;66004;55.096;38.760;2023-02-01T07:17:28;99239.03;;;0.35;68.56
77079;BME280;66004;55.096;38.760;2023-02-01T07:19:58;99247.88;;;0.37;68.60
77079;BME280;66004;55.096;38.760;2023-02-01T07:22:27;99245.09;;;0.37;68.55
77079;BME280;66004;55.096;38.760;2023-02-01T07:24:52;99238.22;;;0.35;68.43
77079;BME280;66004;55.096;38.760;2023-02-01T07:27:18;99247.63;;;0.34;68.38
77079;BME280;66004;55.096;38.760;2023-02-01T07:29:45;99244.69;;;0.25;68.47
77079;BME280;66004;55.096;38.760;2023-02-01T07:32:10;99246.97;;;0.18;68.42
77079;BME280;66004;55.096;38.760;2023-02-01T07:34:36;99251.41;;;0.19;68.59
77079;BME280;66004;55.096;38.760;2023-02-01T07:37:01;99251.41;;;0.19;68.61
77079;BME280;66004;55.096;38.760;2023-02-01T07:39:27;99251.41;;;0.19;68.69
77079;BME280;66004;55.096;38.760;2023-02-01T07:41:53;99242.00;;;0.15;68.53
77079;BME280;66004;55.096;38.760;2023-02-01T07:44:19;99248.56;;;0.24;68.32
77079;BME280;66004;55.096;38.760;2023-02-01T07:46:48;99233.63;;;0.25;67.92
77079;BME280;66004;55.096;38.760;2023-02-01T07:49:13;99242.94;;;0.34;67.99
77079;BME280;66004;55.096;38.760;2023-02-01T07:51:39;99250.03;;;0.46;67.99
77079;BME280;66004;55.096;38.760;2023-02-01T07:54:05;99245.53;;;0.50;67.77
77079;BME280;66004;55.096;38.760;2023-02-01T07:56:30;99243.44;;;0.42;67.96
77079;BME280;66004;55.096;38.760;2023-02-01T07:58:56;99248.97;;;0.42;68.06
77079;BME280;66004;55.096;38.760;2023-02-01T08:01:24;99252.59;;;0.37;68.00
77079;BME280;66004;55.096;38.760;2023-02-01T08:04:00;99249.28;;;0.35;68.04
77079;BME280;66004;55.096;38.760;2023-02-01T08:06:29;99248.38;;;0.45;67.99
77079;BME280;66004;55.096;38.760;2023-02-01T08:08:56;99257.19;;;0.47;67.86
77079;BME280;66004;55.096;38.760;2023-02-01T08:11:22;99245.31;;;0.46;67.77
77079;BME280;66004;55.096;38.760;2023-02-01T08:13:48;99247.78;;;0.48;67.65
77079;BME280;66004;55.096;38.760;2023-02-01T08:16:15;99247.25;;;0.46;67.60
77079;BME280;66004;55.096;38.760;2023-02-01T08:18:41;99240.19;;;0.34;67.58
77079;BME280;66004;55.096;38.760;2023-02-01T08:23:38;99243.31;;;0.52;67.61
77079;BME280;66004;55.096;38.760;2023-02-01T08:26:24;99249.31;;;0.59;67.55
77079;BME280;66004;55.096;38.760;2023-02-01T08:28:56;99248.16;;;0.65;67.34
77079;BME280;66004;55.096;38.760;2023-02-01T08:31:23;99250.88;;;0.70;67.15
77079;BME280;66004;55.096;38.760;2023-02-01T08:33:55;99235.50;;;0.59;67.14
77079;BME280;66004;55.096;38.760;2023-02-01T08:36:21;99245.63;;;0.69;67.05
77079;BME280;66004;55.096;38.760;2023-02-01T08:38:47;99242.59;;;0.65;67.09
77079;BME280;66004;55.096;38.760;2023-02-01T08:41:16;99239.19;;;0.73;66.98
77079;BME280;66004;55.096;38.760;2023-02-01T08:43:42;99239.06;;;0.84;66.88
77079;BME280;66004;55.096;38.760;2023-02-01T08:46:08;99232.59;;;0.93;66.57
77079;BME280;66004;55.096;38.760;2023-02-01T08:48:34;99239.41;;;1.01;66.47
77079;BME280;66004;55.096;38.760;2023-02-01T09:24:35;99219.72;;;1.03;64.48
77079;BME280;66004;55.096;38.760;2023-02-01T09:27:01;99216.91;;;1.08;64.75
77079;BME280;66004;55.096;38.760;2023-02-01T09:29:26;99219.00;;;1.16;64.46
77079;BME280;66004;55.096;38.760;2023-02-01T09:31:52;99212.88;;;1.19;64.38
77079;BME280;66004;55.096;38.760;2023-02-01T09:34:18;99216.06;;;1.07;64.46
77079;BME280;66004;55.096;38.760;2023-02-01T09:36:43;99210.31;;;1.04;64.80
77079;BME280;66004;55.096;38.760;2023-02-01T09:39:09;99214.41;;;1.06;64.71
77079;BME280;66004;55.096;38.760;2023-02-01T09:41:55;99212.75;;;1.05;64.62
77079;BME280;66004;55.096;38.760;2023-02-01T09:44:29;99208.28;;;1.09;64.52
77079;BME280;66004;55.096;38.760;2023-02-01T09:46:58;99212.16;;;1.08;64.59
77079;BME280;66004;55.096;38.760;2023-02-01T09:49:33;99202.13;;;1.12;64.61
77079;BME280;66004;55.096;38.760;2023-02-01T09:52:04;99203.19;;;1.16;64.41
77079;BME280;66004;55.096;38.760;2023-02-01T09:54:54;99196.31;;;1.33;64.28
77079;BME280;66004;55.096;38.760;2023-02-01T09:57:33;99203.22;;;1.54;63.90
77079;BME280;66004;55.096;38.760;2023-02-01T10:00:14;99181.16;;;1.44;63.43
77079;BME280;66004;55.096;38.760;2023-02-01T10:02:42;99197.44;;;1.51;63.74
77079;BME280;66004;55.096;38.760;2023-02-01T10:05:16;99202.59;;;1.58;63.55
77079;BME280;66004;55.096;38.760;2023-02-01T10:07:53;99205.09;;;1.73;63.67
77079;BME280;66004;55.096;38.760;2023-02-01T10:10:39;99202.25;;;1.78;63.24
77079;BME280;66004;55.096;38.760;2023-02-01T10:13:30;99196.44;;;1.61;63.48
77079;BME280;66004;55.096;38.760;2023-02-01T10:22:01;99199.28;;;1.55;63.79
77079;BME280;66004;55.096;38.760;2023-02-01T10:24:42;99192.25;;;1.44;63.55
77079;BME280;66004;55.096;38.760;2023-02-01T10:27:19;99199.47;;;1.45;63.68
77079;BME280;66004;55.096;38.760;2023-02-01T10:29:54;99193.59;;;1.28;64.03
77079;BME280;66004;55.096;38.760;2023-02-01T10:32:28;99200.81;;;1.29;64.08
77079;BME280;66004;55.096;38.760;2023-02-01T10:35:00;99197.88;;;1.20;63.70
77079;BME280;66004;55.096;38.760;2023-02-01T10:37:33;99193.88;;;1.07;64.03
77079;BME280;66004;55.096;38.760;2023-02-01T10:42:40;99184.94;;;1.15;64.12
77079;BME280;66004;55.096;38.760;2023-02-01T10:45:06;99180.44;;;1.20;64.11
77079;BME280;66004;55.096;38.760;2023-02-01T10:47:32;99185.81;;;1.30;64.04
77079;BME280;66004;55.096;38.760;2023-02-01T10:52:40;99186.56;;;1.16;64.07
77079;BME280;66004;55.096;38.760;2023-02-01T10:55:28;99191.69;;;1.09;64.26
77079;BME280;66004;55.096;38.760;2023-02-01T10:57:59;99182.56;;;0.85;64.39
77079;BME280;66004;55.096;38.760;2023-02-01T11:00:27;99186.00;;;0.76;65.04
77079;BME280;66004;55.096;38.760;2023-02-01T11:02:53;99182.75;;;0.69;65.06
77079;BME280;66004;55.096;38.760;2023-02-01T11:05:20;99194.25;;;0.57;65.69
77079;BME280;66004;55.096;38.760;2023-02-01T11:07:53;99187.97;;;0.52;66.04
77079;BME280;66004;55.096;38.760;2023-02-01T11:10:41;99189.47;;;0.63;65.98
77079;BME280;66004;55.096;38.760;2023-02-01T11:13:15;99183.94;;;0.63;65.84
77079;BME280;66004;55.096;38.760;2023-02-01T11:15:46;99180.19;;;0.54;65.88
77079;BME280;66004;55.096;38.760;2023-02-01T11:18:28;99179.00;;;0.60;65.74
77079;BME280;66004;55.096;38.760;2023-02-01T11:20:54;99175.69;;;0.58;65.68
77079;BME280;66004;55.096;38.760;2023-02-01T11:23:28;99183.94;;;0.63;65.78
77079;BME280;66004;55.096;38.760;2023-02-01T11:25:57;99182.91;;;0.59;65.65
77079;BME280;66004;55.096;38.760;2023-02-01T11:28:29;99175.22;;;0.51;65.72
77079;BME280;66004;55.096;38.760;2023-02-01T11:30:59;99193.78;;;0.50;65.71
77079;BME280;66004;55.096;38.760;2023-02-01T11:33:37;99179.94;;;0.50;65.70
77079;BME280;66004;55.096;38.760;2023-02-01T11:36:31;99197.66;;;0.73;65.33
77079;BME280;66004;55.096;38.760;2023-02-01T11:44:41;99201.13;;;0.84;64.78
77079;BME280;66004;55.096;38.760;2023-02-01T11:47:25;99198.75;;;0.96;64.49
77079;BME280;66004;55.096;38.760;2023-02-01T11:49:53;99196.28;;;0.95;64.03
77079;BME280;66004;55.096;38.760;2023-02-01T11:55:07;99207.34;;;0.76;64.13
77079;BME280;66004;55.096;38.760;2023-02-01T12:03:07;99220.69;;;0.45;64.54
77079;BME280;66004;55.096;38.760;2023-02-01T12:10:55;99214.56;;;0.48;64.85
77079;BME280;66004;55.096;38.760;2023-02-01T12:14:01;99214.97;;;0.60;64.77
77079;BME280;66004;55.096;38.760;2023-02-01T12:19:17;99216.81;;;0.70;64.68
77079;BME280;66004;55.096;38.760;2023-02-01T12:21:57;99221.16;;;0.76;64.44
77079;BME280;66004;55.096;38.760;2023-02-01T12:38:23;99241.88;;;0.30;64.88
77079;BME280;66004;55.096;38.760;2023-02-01T12:41:02;99235.75;;;0.33;64.87
77079;BME280;66004;55.096;38.760;2023-02-01T12:46:33;99237.91;;;0.42;64.85
77079;BME280;66004;55.096;38.760;2023-02-01T12:51:42;99238.47;;;0.38;65.34
77079;BME280;66004;55.096;38.760;2023-02-01T12:56:59;99239.16;;;0.25;65.31
77079;BME280;66004;55.096;38.760;2023-02-01T12:59:44;99245.94;;;0.09;65.30
77079;BME280;66004;55.096;38.760;2023-02-01T13:02:21;99243.53;;;0.02;65.60
77079;BME280;66004;55.096;38.760;2023-02-01T13:05:04;99242.66;;;0.07;65.80
77079;BME280;66004;55.096;38.760;2023-02-01T13:07:44;99249.25;;;0.11;65.70
77079;BME280;66004;55.096;38.760;2023-02-01T13:15:28;99258.00;;;0.23;66.07
77079;BME280;66004;55.096;38.760;2023-02-01T13:17:55;99263.28;;;0.19;66.06
77079;BME280;66004;55.096;38.760;2023-02-01T13:20:34;99260.31;;;0.11;65.90
77079;BME280;66004;55.096;38.760;2023-02-01T13:23:08;99258.75;;;-0.01;66.13
77079;BME280;66004;55.096;38.760;2023-02-01T13:25:55;99243.41;;;-0.17;65.92
77079;BME280;66004;55.096;38.760;2023-02-01T13:42:15;99258.03;;;-0.11;66.47
77079;BME280;66004;55.096;38.760;2023-02-01T13:45:01;99257.19;;;-0.12;66.52
77079;BME280;66004;55.096;38.760;2023-02-01T13:47:32;99258.25;;;-0.08;66.37
77079;BME280;66004;55.096;38.760;2023-02-01T13:53:00;99273.50;;;-0.15;66.66
77079;BME280;66004;55.096;38.760;2023-02-01T13:55:27;99261.97;;;-0.23;66.66
77079;BME280;66004;55.096;38.760;2023-02-01T14:00:46;99256.00;;;-0.40;66.84
77079;BME280;66004;55.096;38.760;2023-02-01T14:03:48;99267.81;;;-0.29;67.17
77079;BME280;66004;55.096;38.760;2023-02-01T14:09:45;99279.38;;;-0.22;67.24
77079;BME280;66004;55.096;38.760;2023-02-01T14:17:44;99284.94;;;-0.27;67.27
77079;BME280;66004;55.096;38.760;2023-02-01T14:20:42;99283.31;;;-0.28;67.43
77079;BME280;66004;55.096;38.760;2023-02-01T14:23:17;99283.00;;;-0.27;66.84
77079;BME280;66004;55.096;38.760;2023-02-01T14:25:45;99287.13;;;-0.24;67.21
77079;BME280;66004;55.096;38.760;2023-02-01T14:28:23;99288.22;;;-0.20;67.21
77079;BME280;66004;55.096;38.760;2023-02-01T14:30:50;99285.97;;;-0.18;67.64
77079;BME280;66004;55.096;38.760;2023-02-01T14:33:21;99302.81;;;-0.14;67.41
77079;BME280;66004;55.096;38.760;2023-02-01T14:36:02;99303.66;;;-0.14;67.53
77079;BME280;66004;55.096;38.760;2023-02-01T14:38:28;99306.13;;;-0.12;66.99
77079;BME280;66004;55.096;38.760;2023-02-01T14:41:55;99274.16;;;-0.29;67.32
77079;BME280;66004;55.096;38.760;2023-02-01T14:47:05;99305.88;;;-0.16;67.47
77079;BME280;66004;55.096;38.760;2023-02-01T15:19:27;99299.28;;;-0.20;67.42
77079;BME280;66004;55.096;38.760;2023-02-01T15:21:58;99307.28;;;-0.18;67.49
77079;BME280;66004;55.096;38.760;2023-02-01T15:24:29;99300.97;;;-0.24;67.26
77079;BME280;66004;55.096;38.760;2023-02-01T15:26:58;99298.25;;;-0.34;67.58
77079;BME280;66004;55.096;38.760;2023-02-01T15:29:27;99302.97;;;-0.40;67.34
77079;BME280;66004;55.096;38.760;2023-02-01T15:31:58;99303.84;;;-0.40;67.65
77079;BME280;66004;55.096;38.760;2023-02-01T15:34:47;99307.06;;;-0.32;67.81
77079;BME280;66004;55.096;38.760;2023-02-01T15:37:14;99305.44;;;-0.33;67.61
77079;BME280;66004;55.096;38.760;2023-02-01T15:40:04;99316.50;;;-0.33;67.68
77079;BME280;66004;55.096;38.760;2023-02-01T15:42:33;99309.59;;;-0.36;67.61
77079;BME280;66004;55.096;38.760;2023-02-01T15:44:58;99306.59;;;-0.40;67.67
77079;BME280;66004;55.096;38.760;2023-02-01T15:47:26;99309.31;;;-0.34;67.69
77079;BME280;66004;55.096;38.760;2023-02-01T15:49:57;99296.66;;;-0.46;67.46
77079;BME280;66004;55.096;38.760;2023-02-01T15:52:39;99310.47;;;-0.41;67.85
77079;BME280;66004;55.096;38.760;2023-02-01T15:55:16;99288.44;;;-0.51;67.66
77079;BME280;66004;55.096;38.760;2023-02-01T15:57:43;99291.78;;;-0.59;67.80
77079;BME280;66004;55.096;38.760;2023-02-01T16:02:59;99311.09;;;-0.54;67.90
77079;BME280;66004;55.096;38.760;2023-02-01T16:08:14;99323.22;;;-0.50;67.88
77079;BME280;66004;55.096;38.760;2023-02-01T16:10:44;99323.53;;;-0.56;67.75
77079;BME280;66004;55.096;38.760;2023-02-01T16:13:11;99330.44;;;-0.59;67.78
77079;BME280;66004;55.096;38.760;2023-02-01T16:15:38;99324.91;;;-0.59;67.91
77079;BME280;66004;55.096;38.760;2023-02-01T16:18:05;99319.13;;;-0.63;68.08
77079;BME280;66004;55.096;38.760;2023-02-01T16:20:33;99323.28;;;-0.60;68.26
77079;BME280;66004;55.096;38.760;2023-02-01T16:23:01;99326.59;;;-0.58;68.05
77079;BME280;66004;55.096;38.760;2023-02-01T16:25:26;99322.16;;;-0.59;68.13
77079;BME280;66004;55.096;38.760;2023-02-01T16:27:52;99328.81;;;-0.60;68.28
77079;BME280;66004;55.096;38.760;2023-02-01T16:30:17;99328.22;;;-0.57;68.23
77079;BME280;66004;55.096;38.760;2023-02-01T16:32:52;99319.13;;;-0.57;68.16